createdAt,value
2019-01-17T00:00:03.375Z,1010.1
2019-01-17T00:01:03.537Z,1009.9
2019-01-17T00:02:03.158Z,1009.9
2019-01-17T00:03:03.218Z,1009.9
2019-01-17T00:04:03.800Z,1009.9
2019-01-17T00:05:02.982Z,1009.9
2019-01-17T00:06:02.853Z,1009.8
2019-01-17T00:07:03.323Z,1009.9
2019-01-17T00:08:03.922Z,1009.9
2019-01-17T00:09:03.052Z,1009.8
2019-01-17T00:10:03.695Z,1009.7
2019-01-17T00:11:03.361Z,1009.8
2019-01-17T00:12:03.471Z,1009.8
2019-01-17T00:13:03.427Z,1009.7
2019-01-17T00:14:03.037Z,1009.7
2019-01-17T00:15:03.094Z,1009.8
2019-01-17T00:16:02.900Z,1009.7
2019-01-17T00:17:03.278Z,1009.7
2019-01-17T00:18:03.451Z,1009.7
2019-01-17T00:19:02.876Z,1009.6
2019-01-17T00:20:03.710Z,1009.8
2019-01-17T00:21:03.017Z,1009.8
2019-01-17T00:22:03.710Z,1009.8
2019-01-17T00:23:03.506Z,1009.8
2019-01-17T00:24:03.231Z,1009.8
2019-01-17T00:25:03.857Z,1009.8
2019-01-17T00:26:03.901Z,1009.8
2019-01-17T00:27:03.037Z,1009.8
2019-01-17T00:28:02.945Z,1009.8
2019-01-17T00:29:03.235Z,1009.8
2019-01-17T00:30:03.124Z,1009.8
2019-01-17T00:31:03.370Z,1009.8
2019-01-17T00:32:03.432Z,1009.9
2019-01-17T00:33:03.057Z,1009.8
2019-01-17T00:34:02.814Z,1009.9
2019-01-17T00:35:03.061Z,1009.8
2019-01-17T00:36:03.049Z,1009.7
2019-01-17T00:37:03.625Z,1009.8
2019-01-17T00:38:03.800Z,1009.8
2019-01-17T00:39:03.710Z,1009.7
2019-01-17T00:40:03.254Z,1009.8
2019-01-17T00:41:03.295Z,1009.8
2019-01-17T00:42:03.971Z,1009.8
2019-01-17T00:43:03.524Z,1009.7
2019-01-17T00:44:03.797Z,1009.8
2019-01-17T00:45:03.393Z,1009.7
2019-01-17T00:46:03.707Z,1009.8
2019-01-17T00:47:03.130Z,1009.6
2019-01-17T00:48:03.321Z,1009.8
2019-01-17T00:49:02.960Z,1009.7
2019-01-17T00:50:03.856Z,1009.7
2019-01-17T00:51:03.172Z,1009.7
2019-01-17T00:52:03.178Z,1009.7
2019-01-17T00:53:03.680Z,1009.7
2019-01-17T00:54:09.570Z,1009.6
2019-01-17T00:55:03.445Z,1009.6
2019-01-17T00:56:03.938Z,1009.7
2019-01-17T00:57:03.632Z,1009.7
2019-01-17T00:58:03.863Z,1009.8
2019-01-17T00:59:03.201Z,1009.8
2019-01-17T01:00:02.889Z,1009.8
2019-01-17T01:01:03.759Z,1009.7
2019-01-17T01:02:04.288Z,1009.7
2019-01-17T01:03:03.719Z,1009.7
2019-01-17T01:04:04.004Z,1009.8
2019-01-17T01:05:03.670Z,1009.7
2019-01-17T01:06:02.919Z,1009.7
2019-01-17T01:07:03.089Z,1009.8
2019-01-17T01:08:03.422Z,1009.6
2019-01-17T01:09:03.581Z,1009.7
2019-01-17T01:10:03.670Z,1009.7
2019-01-17T01:11:03.232Z,1009.7
2019-01-17T01:12:03.255Z,1009.7
2019-01-17T01:13:03.289Z,1009.6
2019-01-17T01:14:03.340Z,1009.6
2019-01-17T01:15:03.142Z,1009.6
2019-01-17T01:16:03.804Z,1009.7
2019-01-17T01:17:03.496Z,1009.6
2019-01-17T01:18:03.385Z,1009.6
2019-01-17T01:19:03.690Z,1009.7
2019-01-17T01:20:03.223Z,1009.6
2019-01-17T01:21:03.427Z,1009.6
2019-01-17T01:22:03.889Z,1009.6
2019-01-17T01:23:02.919Z,1009.6
2019-01-17T01:24:03.223Z,1009.6
2019-01-17T01:25:03.853Z,1009.6
2019-01-17T01:26:03.410Z,1009.5
2019-01-17T01:27:02.982Z,1009.6
2019-01-17T01:28:03.123Z,1009.5
2019-01-17T01:29:03.042Z,1009.6
2019-01-17T01:30:02.997Z,1009.5
2019-01-17T01:31:03.364Z,1009.6
2019-01-17T01:32:03.607Z,1009.5
2019-01-17T01:33:02.970Z,1009.5
2019-01-17T01:34:03.134Z,1009.6
2019-01-17T01:35:03.821Z,1009.6
2019-01-17T01:36:03.373Z,1009.6
2019-01-17T01:37:03.779Z,1009.6
2019-01-17T01:38:03.597Z,1009.6
2019-01-17T01:39:03.291Z,1009.6
2019-01-17T01:40:03.151Z,1009.7
2019-01-17T01:41:03.479Z,1009.6
2019-01-17T01:42:03.678Z,1009.7
2019-01-17T01:43:03.153Z,1009.5
2019-01-17T01:44:03.138Z,1009.7
2019-01-17T01:45:03.181Z,1009.7
2019-01-17T01:46:03.544Z,1009.7
2019-01-17T01:47:03.729Z,1009.8
2019-01-17T01:48:02.941Z,1009.8
2019-01-17T01:49:03.393Z,1009.8
2019-01-17T01:50:03.677Z,1009.8
2019-01-17T01:51:03.408Z,1009.7
2019-01-17T01:52:03.829Z,1009.7
2019-01-17T01:53:03.778Z,1009.7
2019-01-17T01:54:03.836Z,1009.7
2019-01-17T01:55:03.030Z,1009.8
2019-01-17T01:56:03.632Z,1009.8
2019-01-17T01:57:03.386Z,1009.8
2019-01-17T01:58:03.442Z,1009.8
2019-01-17T01:59:03.678Z,1009.8
2019-01-17T02:00:03.826Z,1009.7
2019-01-17T02:01:03.115Z,1009.7
2019-01-17T02:02:03.278Z,1009.7
2019-01-17T02:03:03.046Z,1009.8
2019-01-17T02:04:03.812Z,1009.7
2019-01-17T02:05:03.491Z,1009.8
2019-01-17T02:06:03.531Z,1009.7
2019-01-17T02:07:03.200Z,1009.7
2019-01-17T02:08:03.803Z,1009.7
2019-01-17T02:09:03.888Z,1009.5
2019-01-17T02:10:03.083Z,1009.7
2019-01-17T02:11:03.247Z,1009.5
2019-01-17T02:12:02.805Z,1009.5
2019-01-17T02:13:03.289Z,1009.5
2019-01-17T02:14:03.721Z,1009.5
2019-01-17T02:15:03.317Z,1009.6
2019-01-17T02:16:03.451Z,1009.4
2019-01-17T02:17:03.360Z,1009.4
2019-01-17T02:18:03.502Z,1009.4
2019-01-17T02:19:03.776Z,1009.3
2019-01-17T02:20:03.816Z,1009.3
2019-01-17T02:21:03.527Z,1009.3
2019-01-17T02:22:03.730Z,1009.3
2019-01-17T02:23:02.992Z,1009.2
2019-01-17T02:24:03.146Z,1009.2
2019-01-17T02:25:03.840Z,1009.2
2019-01-17T02:26:03.572Z,1009.2
2019-01-17T02:27:03.857Z,1009.1
2019-01-17T02:28:02.919Z,1009.1
2019-01-17T02:29:03.579Z,1009.1
2019-01-17T02:30:03.175Z,1009
2019-01-17T02:31:03.412Z,1009.1
2019-01-17T02:32:03.436Z,1009.1
2019-01-17T02:33:03.245Z,1009.1
2019-01-17T02:34:03.205Z,1009.1
2019-01-17T02:35:03.293Z,1009.1
2019-01-17T02:36:03.931Z,1009.1
2019-01-17T02:37:03.001Z,1009.1
2019-01-17T02:38:03.188Z,1008.9
2019-01-17T02:39:03.423Z,1009
2019-01-17T02:40:03.168Z,1009
2019-01-17T02:41:03.517Z,1009
2019-01-17T02:42:03.544Z,1009
2019-01-17T02:43:03.640Z,1009
2019-01-17T02:44:03.942Z,1009
2019-01-17T02:45:03.446Z,1008.9
2019-01-17T02:46:03.796Z,1008.9
2019-01-17T02:47:03.099Z,1009
2019-01-17T02:48:03.537Z,1009.1
2019-01-17T02:49:03.950Z,1009
2019-01-17T02:50:03.329Z,1009.1
2019-01-17T02:51:03.882Z,1009
2019-01-17T02:52:02.905Z,1009
2019-01-17T02:53:03.723Z,1009
2019-01-17T02:54:03.616Z,1009
2019-01-17T02:55:03.942Z,1009
2019-01-17T02:56:03.458Z,1009.1
2019-01-17T02:57:03.600Z,1009
2019-01-17T02:58:03.420Z,1009
2019-01-17T02:59:03.462Z,1009.1
2019-01-17T03:00:03.169Z,1009
2019-01-17T03:01:03.356Z,1009.1
2019-01-17T03:02:03.714Z,1009.1
2019-01-17T03:03:03.363Z,1009.1
2019-01-17T03:04:03.263Z,1009
2019-01-17T03:05:03.570Z,1009
2019-01-17T03:06:02.984Z,1009
2019-01-17T03:07:03.842Z,1009
2019-01-17T03:08:03.822Z,1008.9
2019-01-17T03:09:03.889Z,1009.1
2019-01-17T03:10:03.474Z,1009
2019-01-17T03:11:02.987Z,1009
2019-01-17T03:12:03.423Z,1009.1
2019-01-17T03:13:03.842Z,1009
2019-01-17T03:14:03.203Z,1009.1
2019-01-17T03:15:03.545Z,1009.1
2019-01-17T03:16:03.618Z,1009.1
2019-01-17T03:17:03.337Z,1009.1
2019-01-17T03:18:03.732Z,1009.1
2019-01-17T03:19:03.598Z,1009.1
2019-01-17T03:20:03.846Z,1009.2
2019-01-17T03:21:03.320Z,1009.1
2019-01-17T03:22:03.884Z,1009.2
2019-01-17T03:23:03.773Z,1009.1
2019-01-17T03:24:03.729Z,1008.9
2019-01-17T03:25:03.605Z,1009
2019-01-17T03:26:03.352Z,1009
2019-01-17T03:27:03.040Z,1009
2019-01-17T03:28:03.443Z,1009
2019-01-17T03:29:03.175Z,1008.9
2019-01-17T03:30:03.654Z,1008.9
2019-01-17T03:31:03.857Z,1008.9
2019-01-17T03:32:03.480Z,1009
2019-01-17T03:33:03.022Z,1009
2019-01-17T03:34:04.052Z,1009
2019-01-17T03:35:03.991Z,1009
2019-01-17T03:36:03.902Z,1009
2019-01-17T03:37:03.423Z,1008.9
2019-01-17T03:38:03.606Z,1009
2019-01-17T03:39:03.798Z,1009
2019-01-17T03:40:03.474Z,1008.9
2019-01-17T03:41:03.453Z,1009.1
2019-01-17T03:42:03.827Z,1009
2019-01-17T03:43:03.592Z,1009
2019-01-17T03:44:03.787Z,1009
2019-01-17T03:45:03.824Z,1009
2019-01-17T03:46:03.033Z,1009
2019-01-17T03:47:03.772Z,1009
2019-01-17T03:48:03.621Z,1009.1
2019-01-17T03:49:03.571Z,1009
2019-01-17T03:50:03.868Z,1009.1
2019-01-17T03:51:04.018Z,1009
2019-01-17T03:52:03.376Z,1009.1
2019-01-17T03:53:03.817Z,1009.1
2019-01-17T03:54:03.860Z,1009.1
2019-01-17T03:55:03.570Z,1009.1
2019-01-17T03:56:03.305Z,1009.1
2019-01-17T03:57:03.116Z,1009
2019-01-17T03:58:04.042Z,1009.1
2019-01-17T03:59:03.571Z,1009
2019-01-17T04:00:03.782Z,1009
2019-01-17T04:01:03.107Z,1009
2019-01-17T04:02:03.692Z,1009
2019-01-17T04:03:03.065Z,1009
2019-01-17T04:04:03.707Z,1008.9
2019-01-17T04:05:03.100Z,1009
2019-01-17T04:06:03.584Z,1009.1
2019-01-17T04:07:03.352Z,1009
2019-01-17T04:08:03.710Z,1009
2019-01-17T04:09:03.202Z,1009
2019-01-17T04:10:03.603Z,1009.1
2019-01-17T04:11:03.633Z,1009
2019-01-17T04:12:03.893Z,1009
2019-01-17T04:13:03.697Z,1009.1
2019-01-17T04:14:03.007Z,1009.1
2019-01-17T04:15:03.759Z,1009.1
2019-01-17T04:16:03.142Z,1009.2
2019-01-17T04:17:03.511Z,1009
2019-01-17T04:18:03.227Z,1009.1
2019-01-17T04:19:03.762Z,1009
2019-01-17T04:20:03.866Z,1009
2019-01-17T04:21:03.372Z,1009.2
2019-01-17T04:22:03.831Z,1009
2019-01-17T04:23:03.369Z,1009
2019-01-17T04:24:03.421Z,1009
2019-01-17T04:25:03.155Z,1009.1
2019-01-17T04:26:03.793Z,1009.1
2019-01-17T04:27:02.938Z,1009.1
2019-01-17T04:28:03.692Z,1009
2019-01-17T04:29:03.123Z,1009.2
2019-01-17T04:30:03.600Z,1009.1
2019-01-17T04:31:03.045Z,1009.1
2019-01-17T04:32:03.133Z,1009
2019-01-17T04:33:03.212Z,1009.1
2019-01-17T04:34:03.930Z,1009.1
2019-01-17T04:35:03.085Z,1009
2019-01-17T04:36:03.020Z,1009
2019-01-17T04:37:02.910Z,1009
2019-01-17T04:38:03.878Z,1009
2019-01-17T04:39:03.003Z,1009
2019-01-17T04:40:03.636Z,1008.9
2019-01-17T04:41:03.722Z,1008.8
2019-01-17T04:42:03.461Z,1009
2019-01-17T04:43:02.955Z,1008.8
2019-01-17T04:44:03.579Z,1008.9
2019-01-17T04:45:03.600Z,1008.9
2019-01-17T04:46:03.877Z,1009
2019-01-17T04:47:02.942Z,1008.9
2019-01-17T04:48:02.987Z,1008.9
2019-01-17T04:49:03.788Z,1009
2019-01-17T04:50:03.149Z,1009
2019-01-17T04:51:02.951Z,1009
2019-01-17T04:52:03.526Z,1009
2019-01-17T04:53:03.483Z,1009
2019-01-17T04:54:03.438Z,1008.9
2019-01-17T04:55:06.030Z,1008.9
2019-01-17T04:56:02.855Z,1008.9
2019-01-17T04:57:03.819Z,1008.8
2019-01-17T04:58:03.562Z,1008.7
2019-01-17T04:59:03.203Z,1008.9
2019-01-17T05:00:03.663Z,1008.9
2019-01-17T05:01:03.440Z,1008.9
2019-01-17T05:02:03.842Z,1008.9
2019-01-17T05:03:03.664Z,1008.9
2019-01-17T05:04:03.460Z,1008.9
2019-01-17T05:05:03.446Z,1008.8
2019-01-17T05:06:03.895Z,1008.9
2019-01-17T05:07:02.872Z,1008.9
2019-01-17T05:08:03.421Z,1008.8
2019-01-17T05:09:03.998Z,1008.9
2019-01-17T05:10:03.912Z,1008.8
2019-01-17T05:11:03.495Z,1008.8
2019-01-17T05:12:03.421Z,1008.8
2019-01-17T05:13:02.913Z,1008.9
2019-01-17T05:14:03.746Z,1008.7
2019-01-17T05:15:03.710Z,1008.7
2019-01-17T05:16:03.418Z,1008.8
2019-01-17T05:17:03.612Z,1008.8
2019-01-17T05:18:03.127Z,1008.8
2019-01-17T05:19:03.768Z,1008.8
2019-01-17T05:20:03.844Z,1008.7
2019-01-17T05:21:03.189Z,1008.8
2019-01-17T05:22:03.130Z,1008.8
2019-01-17T05:23:03.193Z,1008.8
2019-01-17T05:24:03.847Z,1008.8
2019-01-17T05:25:03.269Z,1008.8
2019-01-17T05:26:03.779Z,1008.9
2019-01-17T05:27:03.924Z,1008.9
2019-01-17T05:28:03.148Z,1008.8
2019-01-17T05:29:03.137Z,1008.8
2019-01-17T05:30:03.611Z,1008.8
2019-01-17T05:31:03.262Z,1008.9
2019-01-17T05:32:03.415Z,1008.9
2019-01-17T05:33:03.519Z,1008.8
2019-01-17T05:34:03.622Z,1008.8
2019-01-17T05:35:03.805Z,1008.8
2019-01-17T05:36:03.085Z,1008.8
2019-01-17T05:37:03.424Z,1008.8
2019-01-17T05:38:03.250Z,1008.7
2019-01-17T05:39:03.203Z,1008.8
2019-01-17T05:40:03.662Z,1008.8
2019-01-17T05:41:03.398Z,1008.7
2019-01-17T05:42:03.205Z,1008.7
2019-01-17T05:43:03.423Z,1008.7
2019-01-17T05:44:03.754Z,1008.7
2019-01-17T05:45:03.453Z,1008.8
2019-01-17T05:46:03.356Z,1008.8
2019-01-17T05:47:03.253Z,1008.8
2019-01-17T05:48:03.715Z,1008.9
2019-01-17T05:49:03.362Z,1009
2019-01-17T05:50:03.668Z,1008.9
2019-01-17T05:51:03.212Z,1009
2019-01-17T05:52:03.551Z,1009
2019-01-17T05:53:03.801Z,1008.9
2019-01-17T05:54:03.273Z,1008.9
2019-01-17T05:55:03.055Z,1009
2019-01-17T05:56:03.121Z,1009
2019-01-17T05:57:03.917Z,1009.1
2019-01-17T05:58:03.527Z,1009
2019-01-17T05:59:03.090Z,1009
2019-01-17T06:00:03.714Z,1008.9
2019-01-17T06:01:03.366Z,1009
2019-01-17T06:02:03.466Z,1008.9
2019-01-17T06:03:03.074Z,1008.9
2019-01-17T06:04:03.256Z,1008.9
2019-01-17T06:05:03.545Z,1008.9
2019-01-17T06:06:03.438Z,1008.9
2019-01-17T06:07:03.336Z,1008.8
2019-01-17T06:08:03.238Z,1008.9
2019-01-17T06:09:03.148Z,1008.8
2019-01-17T06:10:03.173Z,1008.8
2019-01-17T06:11:03.044Z,1008.8
2019-01-17T06:12:03.856Z,1008.8
2019-01-17T06:13:03.752Z,1008.8
2019-01-17T06:14:03.722Z,1008.8
2019-01-17T06:15:03.292Z,1008.7
2019-01-17T06:16:03.712Z,1008.7
2019-01-17T06:17:03.126Z,1008.6
2019-01-17T06:18:03.081Z,1008.7
2019-01-17T06:19:03.002Z,1008.7
2019-01-17T06:20:03.457Z,1008.7
2019-01-17T06:21:03.603Z,1008.7
2019-01-17T06:22:02.930Z,1008.7
2019-01-17T06:23:03.313Z,1008.7
2019-01-17T06:24:03.302Z,1008.7
2019-01-17T06:25:03.187Z,1008.7
2019-01-17T06:26:03.086Z,1008.6
2019-01-17T06:27:02.915Z,1008.6
2019-01-17T06:28:03.183Z,1008.6
2019-01-17T06:29:02.923Z,1008.6
2019-01-17T06:30:03.825Z,1008.6
2019-01-17T06:31:03.251Z,1008.7
2019-01-17T06:32:03.826Z,1008.6
2019-01-17T06:33:03.407Z,1008.7
2019-01-17T06:34:03.077Z,1008.7
2019-01-17T06:35:03.150Z,1008.7
2019-01-17T06:36:03.383Z,1008.7
2019-01-17T06:37:03.930Z,1008.7
2019-01-17T06:38:03.435Z,1008.7
2019-01-17T06:39:03.180Z,1008.8
2019-01-17T06:40:03.866Z,1008.8
2019-01-17T06:41:02.785Z,1008.6
2019-01-17T06:42:02.883Z,1008.7
2019-01-17T06:43:03.119Z,1008.8
2019-01-17T06:44:02.878Z,1008.8
2019-01-17T06:45:03.404Z,1008.8
2019-01-17T06:46:03.154Z,1008.8
2019-01-17T06:47:03.661Z,1008.7
2019-01-17T06:48:02.969Z,1008.8
2019-01-17T06:49:03.664Z,1008.8
2019-01-17T06:50:03.789Z,1008.8
2019-01-17T06:51:03.300Z,1008.8
2019-01-17T06:52:03.963Z,1008.7
2019-01-17T06:53:03.439Z,1008.7
2019-01-17T06:54:03.300Z,1008.8
2019-01-17T06:55:03.431Z,1008.8
2019-01-17T06:56:03.594Z,1008.7
2019-01-17T06:57:02.953Z,1008.8
2019-01-17T06:58:03.589Z,1008.8
2019-01-17T06:59:03.303Z,1008.9
2019-01-17T07:00:03.786Z,1008.8
2019-01-17T07:01:03.278Z,1008.7
2019-01-17T07:02:03.782Z,1008.8
2019-01-17T07:03:03.735Z,1008.8
2019-01-17T07:04:03.370Z,1008.8
2019-01-17T07:05:03.488Z,1008.8
2019-01-17T07:06:03.700Z,1008.7
2019-01-17T07:07:03.682Z,1008.8
2019-01-17T07:08:02.866Z,1008.8
2019-01-17T07:09:03.391Z,1008.8
2019-01-17T07:10:03.078Z,1008.9
2019-01-17T07:11:03.693Z,1008.9
2019-01-17T07:12:02.766Z,1008.7
2019-01-17T07:13:02.838Z,1008.9
2019-01-17T07:14:02.892Z,1008.8
2019-01-17T07:15:03.567Z,1008.7
2019-01-17T07:16:03.692Z,1008.7
2019-01-17T07:17:03.167Z,1008.7
2019-01-17T07:18:03.004Z,1008.6
2019-01-17T07:19:03.379Z,1008.7
2019-01-17T07:20:03.801Z,1008.7
2019-01-17T07:21:03.796Z,1008.7
2019-01-17T07:22:03.612Z,1008.8
2019-01-17T07:23:03.063Z,1008.7
2019-01-17T07:24:03.100Z,1008.7
2019-01-17T07:25:03.527Z,1008.7
2019-01-17T07:26:03.060Z,1008.7
2019-01-17T07:27:03.869Z,1008.6
2019-01-17T07:28:03.314Z,1008.5
2019-01-17T07:29:03.996Z,1008.5
2019-01-17T07:30:03.821Z,1008.5
2019-01-17T07:31:03.811Z,1008.5
2019-01-17T07:32:03.867Z,1008.5
2019-01-17T07:33:03.056Z,1008.4
2019-01-17T07:34:03.676Z,1008.4
2019-01-17T07:35:03.481Z,1008.5
2019-01-17T07:36:03.742Z,1008.4
2019-01-17T07:37:03.400Z,1008.4
2019-01-17T07:38:03.022Z,1008.4
2019-01-17T07:39:03.688Z,1008.3
2019-01-17T07:40:03.587Z,1008.4
2019-01-17T07:41:04.116Z,1008.3
2019-01-17T07:42:03.474Z,1008.3
2019-01-17T07:43:03.540Z,1008.4
2019-01-17T07:44:03.511Z,1008.3
2019-01-17T07:45:03.328Z,1008.3
2019-01-17T07:46:03.949Z,1008.3
2019-01-17T07:47:03.509Z,1008.3
2019-01-17T07:48:03.850Z,1008.1
2019-01-17T07:49:02.933Z,1008.1
2019-01-17T07:50:03.540Z,1008.2
2019-01-17T07:51:03.429Z,1008.3
2019-01-17T07:52:03.915Z,1008.2
2019-01-17T07:53:03.413Z,1008.3
2019-01-17T07:54:02.988Z,1008.3
2019-01-17T07:55:03.017Z,1008.4
2019-01-17T07:56:03.063Z,1008.4
2019-01-17T07:57:03.213Z,1008.2
2019-01-17T07:58:03.049Z,1008.3
2019-01-17T07:59:03.672Z,1008.4
2019-01-17T08:00:03.671Z,1008.4
2019-01-17T08:01:03.672Z,1008.3
2019-01-17T08:02:03.751Z,1008.3
2019-01-17T08:03:03.995Z,1008.3
2019-01-17T08:04:03.113Z,1008.3
2019-01-17T08:05:03.085Z,1008.3
2019-01-17T08:06:03.253Z,1008.3
2019-01-17T08:07:03.555Z,1008.3
2019-01-17T08:08:03.494Z,1008.2
2019-01-17T08:09:03.838Z,1008.1
2019-01-17T08:10:03.537Z,1008.2
2019-01-17T08:11:03.367Z,1008.1
2019-01-17T08:12:05.565Z,1008.1
2019-01-17T08:13:03.689Z,1008.2
2019-01-17T08:14:03.228Z,1008
2019-01-17T08:15:03.497Z,1008
2019-01-17T08:16:03.218Z,1008
2019-01-17T08:17:03.484Z,1008
2019-01-17T08:18:02.958Z,1007.9
2019-01-17T08:19:04.006Z,1007.9
2019-01-17T08:20:03.266Z,1007.9
2019-01-17T08:21:03.030Z,1007.9
2019-01-17T08:22:03.367Z,1007.9
2019-01-17T08:23:02.867Z,1008
2019-01-17T08:24:03.221Z,1008
2019-01-17T08:25:03.447Z,1008
2019-01-17T08:26:03.278Z,1008
2019-01-17T08:27:03.776Z,1008
2019-01-17T08:28:02.894Z,1008
2019-01-17T08:29:03.116Z,1007.8
2019-01-17T08:30:03.193Z,1007.9
2019-01-17T08:31:03.833Z,1007.8
2019-01-17T08:32:03.365Z,1007.8
2019-01-17T08:33:03.676Z,1007.9
2019-01-17T08:34:03.166Z,1007.8
2019-01-17T08:35:03.688Z,1007.8
2019-01-17T08:36:03.691Z,1007.8
2019-01-17T08:37:03.617Z,1007.9
2019-01-17T08:38:03.683Z,1007.9
2019-01-17T08:39:03.223Z,1007.9
2019-01-17T08:40:03.941Z,1007.9
2019-01-17T08:41:03.498Z,1007.9
2019-01-17T08:42:03.832Z,1007.9
2019-01-17T08:43:02.999Z,1007.8
2019-01-17T08:44:03.364Z,1007.9
2019-01-17T08:45:03.277Z,1007.9
2019-01-17T08:46:03.652Z,1007.9
2019-01-17T08:47:03.251Z,1007.8
2019-01-17T08:48:03.204Z,1007.9
2019-01-17T08:49:03.799Z,1007.8
2019-01-17T08:50:03.127Z,1007.7
2019-01-17T08:51:03.735Z,1007.7
2019-01-17T08:52:03.269Z,1007.7
2019-01-17T08:53:03.873Z,1007.6
2019-01-17T08:54:03.857Z,1007.6
2019-01-17T08:55:03.075Z,1007.6
2019-01-17T08:56:03.041Z,1007.6
2019-01-17T08:57:03.442Z,1007.6
2019-01-17T08:58:02.991Z,1007.6
2019-01-17T08:59:03.345Z,1007.6
2019-01-17T09:00:03.761Z,1007.6
2019-01-17T09:01:03.094Z,1007.6
2019-01-17T09:02:03.117Z,1007.6
2019-01-17T09:03:03.510Z,1007.6
2019-01-17T09:04:03.692Z,1007.6
2019-01-17T09:05:03.428Z,1007.5
2019-01-17T09:06:03.130Z,1007.6
2019-01-17T09:07:03.150Z,1007.7
2019-01-17T09:08:03.116Z,1007.5
2019-01-17T09:09:03.892Z,1007.5
2019-01-17T09:10:03.031Z,1007.5
2019-01-17T09:11:03.595Z,1007.5
2019-01-17T09:12:03.779Z,1007.5
2019-01-17T09:13:03.064Z,1007.6
2019-01-17T09:14:03.871Z,1007.5
2019-01-17T09:15:03.648Z,1007.5
2019-01-17T09:16:03.568Z,1007.5
2019-01-17T09:17:03.865Z,1007.5
2019-01-17T09:18:03.575Z,1007.5
2019-01-17T09:19:03.112Z,1007.5
2019-01-17T09:20:03.409Z,1007.5
2019-01-17T09:21:03.965Z,1007.5
2019-01-17T09:22:03.360Z,1007.5
2019-01-17T09:23:03.735Z,1007.5
2019-01-17T09:24:03.834Z,1007.5
2019-01-17T09:25:03.230Z,1007.5
2019-01-17T09:26:08.134Z,1007.5
2019-01-17T09:27:02.946Z,1007.4
2019-01-17T09:28:03.322Z,1007.4
2019-01-17T09:29:03.079Z,1007.5
2019-01-17T09:30:03.799Z,1007.5
2019-01-17T09:31:03.287Z,1007.5
2019-01-17T09:32:03.489Z,1007.5
2019-01-17T09:33:03.151Z,1007.5
2019-01-17T09:34:03.311Z,1007.5
2019-01-17T09:35:03.171Z,1007.6
2019-01-17T09:36:03.671Z,1007.5
2019-01-17T09:37:02.932Z,1007.6
2019-01-17T09:38:03.283Z,1007.6
2019-01-17T09:39:03.061Z,1007.6
2019-01-17T09:40:03.242Z,1007.6
2019-01-17T09:41:03.720Z,1007.6
2019-01-17T09:42:03.626Z,1007.6
2019-01-17T09:43:03.139Z,1007.5
2019-01-17T09:44:03.328Z,1007.5
2019-01-17T09:45:03.198Z,1007.5
2019-01-17T09:46:02.999Z,1007.5
2019-01-17T09:47:03.220Z,1007.7
2019-01-17T09:48:03.054Z,1007.5
2019-01-17T09:49:03.840Z,1007.6
2019-01-17T09:50:03.738Z,1007.6
2019-01-17T09:51:03.591Z,1007.5
2019-01-17T09:52:03.450Z,1007.6
2019-01-17T09:53:03.660Z,1007.6
2019-01-17T09:54:03.031Z,1007.6
2019-01-17T09:55:03.585Z,1007.6
2019-01-17T09:56:03.137Z,1007.5
2019-01-17T09:57:03.282Z,1007.5
2019-01-17T09:58:03.772Z,1007.5
2019-01-17T09:59:03.407Z,1007.6
2019-01-17T10:00:03.888Z,1007.6
2019-01-17T10:01:02.953Z,1007.6
2019-01-17T10:02:02.935Z,1007.5
2019-01-17T10:03:03.679Z,1007.5
2019-01-17T10:04:03.214Z,1007.5
2019-01-17T10:05:03.266Z,1007.5
2019-01-17T10:06:03.111Z,1007.4
2019-01-17T10:07:03.667Z,1007.4
2019-01-17T10:08:02.985Z,1007.3
2019-01-17T10:09:03.687Z,1007.3
2019-01-17T10:10:03.991Z,1007.3
2019-01-17T10:11:03.852Z,1007.3
2019-01-17T10:12:03.000Z,1007.3
2019-01-17T10:13:03.802Z,1007.3
2019-01-17T10:14:03.098Z,1007.4
2019-01-17T10:15:03.490Z,1007.3
2019-01-17T10:16:03.863Z,1007.3
2019-01-17T10:17:02.961Z,1007.3
2019-01-17T10:18:03.318Z,1007.2
2019-01-17T10:19:03.325Z,1007.2
2019-01-17T10:20:03.729Z,1007.4
2019-01-17T10:21:03.198Z,1007.3
2019-01-17T10:22:03.128Z,1007.2
2019-01-17T10:23:03.638Z,1007.3
2019-01-17T10:24:03.078Z,1007.3
2019-01-17T10:25:03.598Z,1007.2
2019-01-17T10:26:03.882Z,1007.1
2019-01-17T10:27:03.908Z,1007.1
2019-01-17T10:28:03.199Z,1007.2
2019-01-17T10:29:03.493Z,1007.2
2019-01-17T10:30:03.226Z,1007.2
2019-01-17T10:31:03.441Z,1007.1
2019-01-17T10:32:03.529Z,1007.2
2019-01-17T10:33:03.800Z,1007.1
2019-01-17T10:34:02.941Z,1007.1
2019-01-17T10:35:03.849Z,1007.1
2019-01-17T10:36:02.956Z,1007.1
2019-01-17T10:37:03.119Z,1007.1
2019-01-17T10:38:03.618Z,1007.1
2019-01-17T10:39:02.984Z,1007.1
2019-01-17T10:40:03.924Z,1007
2019-01-17T10:41:03.646Z,1007
2019-01-17T10:42:03.762Z,1007
2019-01-17T10:43:03.492Z,1006.9
2019-01-17T10:44:03.473Z,1007
2019-01-17T10:45:02.958Z,1007
2019-01-17T10:46:03.871Z,1006.9
2019-01-17T10:47:03.172Z,1006.9
2019-01-17T10:48:03.004Z,1006.9
2019-01-17T10:49:03.886Z,1006.8
2019-01-17T10:50:03.206Z,1006.7
2019-01-17T10:51:03.701Z,1006.7
2019-01-17T10:52:03.639Z,1006.7
2019-01-17T10:53:03.031Z,1006.8
2019-01-17T10:54:03.391Z,1006.7
2019-01-17T10:55:03.858Z,1006.7
2019-01-17T10:56:03.510Z,1006.7
2019-01-17T10:57:03.378Z,1006.7
2019-01-17T10:58:03.284Z,1006.6
2019-01-17T10:59:03.319Z,1006.5
2019-01-17T11:00:03.454Z,1006.5
2019-01-17T11:01:03.407Z,1006.6
2019-01-17T11:02:03.015Z,1006.5
2019-01-17T11:03:03.919Z,1006.5
2019-01-17T11:04:03.883Z,1006.5
2019-01-17T11:05:03.922Z,1006.5
2019-01-17T11:06:03.862Z,1006.5
2019-01-17T11:07:03.715Z,1006.5
2019-01-17T11:08:03.824Z,1006.5
2019-01-17T11:09:03.241Z,1006.5
2019-01-17T11:10:03.511Z,1006.5
2019-01-17T11:11:03.328Z,1006.3
2019-01-17T11:12:03.019Z,1006.3
2019-01-17T11:13:03.235Z,1006.3
2019-01-17T11:14:03.040Z,1006.2
2019-01-17T11:15:03.344Z,1006.2
2019-01-17T11:16:03.792Z,1006.2
2019-01-17T11:17:03.645Z,1006.2
2019-01-17T11:18:03.693Z,1006.3
2019-01-17T11:19:02.705Z,1006.4
2019-01-17T11:20:03.060Z,1006.2
2019-01-17T11:21:03.364Z,1006.2
2019-01-17T11:22:03.146Z,1006.3
2019-01-17T11:23:03.604Z,1006.2
2019-01-17T11:24:03.734Z,1006.1
2019-01-17T11:25:03.205Z,1006
2019-01-17T11:26:03.282Z,1006.1
2019-01-17T11:27:03.790Z,1006.2
2019-01-17T11:28:03.225Z,1006
2019-01-17T11:29:02.953Z,1006.1
2019-01-17T11:30:03.482Z,1006.1
2019-01-17T11:31:02.805Z,1006.1
2019-01-17T11:32:03.499Z,1006
2019-01-17T11:33:03.555Z,1006.1
2019-01-17T11:34:03.152Z,1006
2019-01-17T11:35:03.133Z,1006.1
2019-01-17T11:36:03.132Z,1006
2019-01-17T11:37:02.831Z,1006.1
2019-01-17T11:38:03.430Z,1006
2019-01-17T11:39:03.111Z,1006
2019-01-17T11:40:03.434Z,1006
2019-01-17T11:41:03.244Z,1006.1
2019-01-17T11:42:03.023Z,1006.1
2019-01-17T11:43:03.142Z,1006
2019-01-17T11:44:03.464Z,1006
2019-01-17T11:45:03.381Z,1005.9
2019-01-17T11:46:03.711Z,1006
2019-01-17T11:47:03.770Z,1006
2019-01-17T11:48:03.776Z,1005.8
2019-01-17T11:49:03.122Z,1005.9
2019-01-17T11:50:03.424Z,1005.8
2019-01-17T11:51:03.172Z,1005.9
2019-01-17T11:52:03.244Z,1005.8
2019-01-17T11:53:03.569Z,1005.8
2019-01-17T11:54:03.771Z,1005.7
2019-01-17T11:55:03.080Z,1005.8
2019-01-17T11:56:03.454Z,1005.8
2019-01-17T11:57:03.861Z,1005.8
2019-01-17T11:58:03.172Z,1005.7
2019-01-17T11:59:03.071Z,1005.7
2019-01-17T12:00:02.955Z,1005.8
2019-01-17T12:01:03.182Z,1005.8
2019-01-17T12:02:03.593Z,1005.7
2019-01-17T12:03:03.421Z,1005.7
2019-01-17T12:04:03.495Z,1005.8
2019-01-17T12:05:03.274Z,1005.7
2019-01-17T12:06:03.628Z,1005.7
2019-01-17T12:07:03.131Z,1005.7
2019-01-17T12:08:03.753Z,1005.7
2019-01-17T12:09:03.235Z,1005.7
2019-01-17T12:10:03.828Z,1005.7
2019-01-17T12:11:03.404Z,1005.7
2019-01-17T12:12:03.511Z,1005.7
2019-01-17T12:13:02.920Z,1005.6
2019-01-17T12:14:02.979Z,1005.7
2019-01-17T12:15:03.882Z,1005.7
2019-01-17T12:16:02.988Z,1005.7
2019-01-17T12:17:03.543Z,1005.6
2019-01-17T12:18:03.096Z,1005.6
2019-01-17T12:19:03.362Z,1005.7
2019-01-17T12:20:03.696Z,1005.7
2019-01-17T12:21:03.770Z,1005.6
2019-01-17T12:22:02.925Z,1005.6
2019-01-17T12:23:03.154Z,1005.6
2019-01-17T12:24:03.180Z,1005.6
2019-01-17T12:25:03.436Z,1005.4
2019-01-17T12:26:03.966Z,1005.6
2019-01-17T12:27:03.015Z,1005.6
2019-01-17T12:28:02.996Z,1005.5
2019-01-17T12:29:03.634Z,1005.4
2019-01-17T12:30:03.078Z,1005.4
2019-01-17T12:31:03.768Z,1005.4
2019-01-17T12:32:03.696Z,1005.5
2019-01-17T12:33:03.877Z,1005.4
2019-01-17T12:34:03.370Z,1005.5
2019-01-17T12:35:03.203Z,1005.4